Time;durP1;ratioP1;P1;durP2;ratioP2;P2;SDS_P1;SDS_P2;PMS_P1;PMS_P2;Temp;Humidity;BMP_temperature;BMP_pressure;BME280_temperature;BME280_humidity;BME280_pressure;Samples;Min_cycle;Max_cycle;Signal;HPM_P1;HPM_P2
2021/10/11 00:00:42;;;;;;;14.10;4.00;;;;;;;11.79;100.00;102605.00;2615449;36;20040;-65
2021/10/11 00:03:10;;;;;;;12.50;3.85;;;;;;;11.75;100.00;102611.59;2615019;31;20185;-65
2021/10/11 00:05:41;;;;;;;10.73;3.90;;;;;;;11.80;100.00;102606.75;2615488;36;20039;-65
2021/10/11 00:08:10;;;;;;;19.00;4.75;;;;;;;11.81;100.00;102611.19;2614981;31;20117;-65
2021/10/11 00:10:38;;;;;;;8.75;3.55;;;;;;;11.75;100.00;102620.53;2614686;31;20050;-65
2021/10/11 00:13:06;;;;;;;14.52;4.03;;;;;;;11.74;100.00;102615.25;2614829;36;20145;-65
2021/10/11 00:15:34;;;;;;;13.43;3.85;;;;;;;11.73;100.00;102611.69;2614974;31;20122;-64
2021/10/11 00:18:02;;;;;;;14.52;3.40;;;;;;;11.77;100.00;102616.91;2615244;36;20137;-64
2021/10/11 00:20:31;;;;;;;12.93;3.50;;;;;;;11.75;100.00;102620.53;2615244;31;20114;-65
2021/10/11 00:23:01;;;;;;;11.65;3.55;;;;;;;11.80;100.00;102611.28;2614694;36;20065;-64
2021/10/11 00:25:30;;;;;;;15.77;4.32;;;;;;;11.74;100.00;102612.56;2615438;36;20053;-64
2021/10/11 00:27:58;;;;;;;11.57;3.60;;;;;;;11.73;100.00;102625.19;2614504;31;20030;-64
2021/10/11 00:30:26;;;;;;;14.43;3.15;;;;;;;11.69;100.00;102620.06;2615031;36;20129;-64
2021/10/11 00:32:54;;;;;;;12.47;3.10;;;;;;;11.61;100.00;102615.19;2614709;36;20561;-64
2021/10/11 00:35:23;;;;;;;10.63;3.00;;;;;;;11.56;100.00;102618.19;2615135;36;20628;-64
2021/10/11 00:37:51;;;;;;;11.80;3.55;;;;;;;11.48;100.00;102619.63;2615329;36;20034;-64
2021/10/11 00:40:22;;;;;;;9.85;2.97;;;;;;;11.25;100.00;102615.72;2615218;36;20563;-64
2021/10/11 00:42:50;;;;;;;11.15;3.42;;;;;;;11.21;100.00;102613.22;2614815;36;20032;-65
2021/10/11 00:45:18;;;;;;;10.52;3.25;;;;;;;11.08;100.00;102616.78;2616208;36;20610;-65
2021/10/11 00:47:46;;;;;;;14.18;3.58;;;;;;;10.99;100.00;102610.16;2616202;31;20503;-65
2021/10/11 00:50:15;;;;;;;8.77;2.95;;;;;;;10.88;100.00;102616.22;2613654;31;20560;-65
2021/10/11 00:52:46;;;;;;;11.93;3.03;;;;;;;10.79;100.00;102605.97;2606381;36;20038;-64
2021/10/11 00:55:14;;;;;;;11.23;3.05;;;;;;;10.72;100.00;102610.91;2605171;36;20031;-64
2021/10/11 00:57:45;;;;;;;10.90;2.67;;;;;;;10.66;100.00;102608.59;2604139;36;20031;-65
2021/10/11 01:00:14;;;;;;;9.18;3.10;;;;;;;10.61;100.00;102616.06;2603295;36;20044;-65
2021/10/11 01:02:43;;;;;;;;;;;;;;;10.53;100.00;102613.84;2603759;36;20083;-66
2021/10/11 01:05:11;;;;;;;12.40;3.35;;;;;;;10.54;100.00;102609.31;2604040;36;19985;-64
2021/10/11 01:07:40;;;;;;;13.53;3.40;;;;;;;10.49;100.00;102613.16;2603944;36;20022;-65
2021/10/11 01:10:08;;;;;;;12.43;3.08;;;;;;;10.42;100.00;102619.84;2603646;36;20242;-66
2021/10/11 01:12:37;;;;;;;14.13;3.80;;;;;;;10.39;100.00;102622.72;2604581;36;20043;-64
2021/10/11 01:15:09;;;;;;;13.85;3.40;;;;;;;10.27;100.00;102618.06;2602855;36;20038;-64
2021/10/11 01:17:37;;;;;;;9.82;2.83;;;;;;;10.22;100.00;102615.63;2603600;36;20034;-65
2021/10/11 01:20:09;;;;;;;9.57;2.92;;;;;;;10.11;100.00;102610.88;2603693;36;20145;-64
2021/10/11 01:22:41;;;;;;;11.30;3.10;;;;;;;10.04;100.00;102614.91;2604359;31;20030;-65
2021/10/11 01:25:12;;;;;;;8.27;2.40;;;;;;;10.02;100.00;102606.03;2604501;36;20085;-64
2021/10/11 01:27:40;;;;;;;11.75;2.90;;;;;;;9.91;100.00;102612.06;2605316;31;20034;-64
2021/10/11 01:30:11;;;;;;;15.60;3.53;;;;;;;9.88;100.00;102608.66;2604512;36;20126;-64
2021/10/11 01:32:40;;;;;;;10.60;2.85;;;;;;;9.84;100.00;102610.66;2604697;36;20034;-65
2021/10/11 01:35:12;;;;;;;11.02;3.58;;;;;;;9.74;100.00;102604.94;2603373;36;20042;-65
2021/10/11 01:37:42;;;;;;;14.70;3.20;;;;;;;9.68;100.00;102599.06;2603962;31;20149;-65
2021/10/11 01:40:12;;;;;;;10.98;3.03;;;;;;;9.62;100.00;102608.34;2604338;31;20084;-65
2021/10/11 01:42:40;;;;;;;11.65;2.72;;;;;;;9.56;100.00;102612.22;2605504;36;20130;-65
2021/10/11 01:45:09;;;;;;;7.85;2.63;;;;;;;9.52;100.00;102607.13;2604671;36;20077;-64
2021/10/11 01:47:38;;;;;;;12.32;2.55;;;;;;;9.49;100.00;102602.78;2603976;36;20593;-65
2021/10/11 01:50:07;;;;;;;8.27;2.30;;;;;;;9.45;100.00;102607.47;2603517;36;20125;-65
2021/10/11 01:52:40;;;;;;;13.07;2.63;;;;;;;9.37;100.00;102609.72;2604480;36;20117;-65
2021/10/11 01:55:09;;;;;;;11.13;3.15;;;;;;;9.31;100.00;102610.06;2603803;36;20134;-65
2021/10/11 01:57:39;;;;;;;10.15;2.80;;;;;;;9.25;100.00;102610.41;2604370;36;20165;-65
2021/10/11 02:00:09;;;;;;;10.05;2.83;;;;;;;9.21;100.00;102619.56;2604486;36;20034;-64
2021/10/11 02:02:38;;;;;;;14.43;3.03;;;;;;;9.16;100.00;102610.88;2603005;36;20052;-65
2021/10/11 02:05:08;;;;;;;13.63;3.08;;;;;;;9.11;100.00;102609.34;2605172;36;20482;-64
2021/10/11 02:07:39;;;;;;;11.05;3.05;;;;;;;9.15;100.00;102614.53;2604105;36;20080;-64
2021/10/11 02:10:09;;;;;;;10.32;2.65;;;;;;;9.10;100.00;102599.53;2603763;36;20061;-64
2021/10/11 02:12:38;;;;;;;12.43;2.88;;;;;;;9.09;100.00;102602.31;2603860;36;20398;-64
2021/10/11 02:15:08;;;;;;;13.77;2.83;;;;;;;9.01;100.00;102602.72;2603955;36;20065;-64
2021/10/11 02:17:36;;;;;;;8.73;2.50;;;;;;;8.97;100.00;102601.16;2604951;31;20838;-65
2021/10/11 02:20:06;;;;;;;7.68;1.95;;;;;;;8.92;100.00;102606.78;2604390;36;20633;-64
2021/10/11 02:22:35;;;;;;;6.18;2.67;;;;;;;8.89;100.00;102603.38;2604884;36;20125;-65
2021/10/11 02:25:07;;;;;;;13.30;2.40;;;;;;;8.84;100.00;102605.44;2603974;31;21398;-64
2021/10/11 02:27:35;;;;;;;7.10;2.33;;;;;;;8.77;100.00;102607.56;2605862;36;21735;-64
2021/10/11 02:30:03;;;;;;;11.60;2.60;;;;;;;8.72;100.00;102605.13;2603219;36;20580;-65
2021/10/11 02:32:31;;;;;;;8.85;2.35;;;;;;;8.66;100.00;102596.56;2603961;36;20676;-65
2021/10/11 02:34:59;;;;;;;11.75;2.80;;;;;;;8.67;100.00;102609.00;2604200;36;20446;-64
2021/10/11 02:37:28;;;;;;;13.30;2.60;;;;;;;8.59;100.00;102601.38;2605124;36;20546;-63
2021/10/11 02:39:57;;;;;;;13.73;2.70;;;;;;;8.55;100.00;102594.41;2605306;36;20637;-64
2021/10/11 02:42:28;;;;;;;10.75;2.10;;;;;;;8.56;100.00;102590.78;2606065;36;20134;-64
2021/10/11 02:44:56;;;;;;;10.25;2.30;;;;;;;8.45;100.00;102587.78;2605869;36;20589;-63
2021/10/11 02:47:25;;;;;;;7.13;2.45;;;;;;;8.44;100.00;102588.72;2603452;31;20105;-64
2021/10/11 02:49:53;;;;;;;11.35;2.67;;;;;;;8.42;100.00;102584.31;2603852;36;20129;-64
2021/10/11 02:52:21;;;;;;;12.32;2.70;;;;;;;8.42;100.00;102587.00;2604024;36;20075;-64
2021/10/11 02:54:49;;;;;;;13.73;2.20;;;;;;;8.35;100.00;102582.03;2603795;36;20027;-64
2021/10/11 02:57:17;;;;;;;5.50;2.08;;;;;;;8.28;100.00;102581.47;2604705;36;20533;-64
2021/10/11 02:59:48;;;;;;;6.78;2.53;;;;;;;8.30;100.00;102570.66;2603545;36;20038;-64
2021/10/11 03:02:16;;;;;;;13.05;2.35;;;;;;;8.31;100.00;102564.34;2604370;36;20031;-65
2021/10/11 03:04:44;;;;;;;6.68;1.90;;;;;;;8.30;100.00;102566.13;2602644;36;20137;-64
2021/10/11 03:07:13;;;;;;;14.48;2.88;;;;;;;8.23;100.00;102556.69;2604463;36;20056;-64
2021/10/11 03:09:41;;;;;;;8.10;2.47;;;;;;;8.13;100.00;102561.66;2604201;36;20176;-64
2021/10/11 03:12:09;;;;;;;6.15;1.90;;;;;;;8.09;100.00;102553.84;2603746;36;20109;-64
2021/10/11 03:14:37;;;;;;;9.57;2.47;;;;;;;8.14;100.00;102551.78;2603850;36;20038;-64
2021/10/11 03:17:08;;;;;;;12.05;2.30;;;;;;;8.14;100.00;102565.19;2604184;36;20084;-64
2021/10/11 03:22:10;;;;;;;7.32;2.90;;;;;;;8.01;100.00;102557.78;2607227;36;20157;-64
2021/10/11 03:24:38;;;;;;;9.57;2.50;;;;;;;7.99;100.00;102561.47;2603848;36;21859;-64
2021/10/11 03:27:06;;;;;;;12.15;2.72;;;;;;;8.02;100.00;102566.69;2604026;36;20030;-65
2021/10/11 03:29:34;;;;;;;12.82;3.20;;;;;;;7.97;100.00;102566.91;2603238;36;21546;-65
2021/10/11 03:32:03;;;;;;;8.32;2.67;;;;;;;7.93;100.00;102567.16;2603819;36;20133;-65
2021/10/11 03:34:33;;;;;;;7.75;2.65;;;;;;;7.82;100.00;102571.25;2604590;36;20122;-65
2021/10/11 03:37:01;;;;;;;10.15;2.78;;;;;;;7.79;100.00;102573.19;2603981;36;20129;-65
2021/10/11 03:39:30;;;;;;;7.60;2.50;;;;;;;7.75;100.00;102572.50;2604506;36;20116;-65
2021/10/11 03:41:58;;;;;;;6.63;2.67;;;;;;;7.78;100.00;102582.19;2603560;36;20041;-64
2021/10/11 03:44:26;;;;;;;12.13;2.30;;;;;;;7.71;100.00;102573.56;2605092;36;20150;-65
2021/10/11 03:46:55;;;;;;;8.13;2.60;;;;;;;7.66;100.00;102568.44;2603182;31;20064;-65
2021/10/11 03:49:23;;;;;;;7.07;2.30;;;;;;;7.66;100.00;102567.59;2604417;31;20052;-65
2021/10/11 03:51:54;;;;;;;13.75;2.45;;;;;;;7.66;100.00;102568.44;2604799;36;20121;-65
2021/10/11 03:54:22;;;;;;;10.50;2.97;;;;;;;7.69;100.00;102570.97;2605617;36;20114;-65
2021/10/11 03:56:50;;;;;;;8.85;2.70;;;;;;;7.65;100.00;102566.69;2603665;36;20019;-66
2021/10/11 03:59:18;;;;;;;10.98;2.13;;;;;;;7.63;100.00;102565.91;2604709;36;20118;-65
2021/10/11 04:01:46;;;;;;;11.35;2.90;;;;;;;7.73;100.00;102569.03;2604316;36;20044;-65
2021/10/11 04:04:15;;;;;;;8.95;2.88;;;;;;;7.79;100.00;102575.88;2604693;31;20546;-65
2021/10/11 04:06:44;;;;;;;11.02;3.05;;;;;;;7.91;100.00;102567.25;2604590;36;20534;-65
2021/10/11 04:09:15;;;;;;;8.75;2.95;;;;;;;7.99;100.00;102566.84;2603187;36;20034;-65
2021/10/11 04:11:44;;;;;;;14.90;2.78;;;;;;;7.96;100.00;102565.19;2603621;31;20157;-65
2021/10/11 04:14:12;;;;;;;18.23;3.42;;;;;;;8.07;100.00;102565.50;2604155;36;20050;-65
2021/10/11 04:16:40;;;;;;;12.55;3.53;;;;;;;8.22;100.00;102569.22;2603158;36;20034;-64
2021/10/11 04:19:08;;;;;;;10.45;3.30;;;;;;;8.29;100.00;102561.75;2604230;36;20038;-64
2021/10/11 04:21:38;;;;;;;15.25;3.40;;;;;;;8.40;100.00;102564.72;2604224;36;20060;-64
2021/10/11 04:24:07;;;;;;;13.88;3.42;;;;;;;8.42;100.00;102560.16;2603938;31;20034;-64
2021/10/11 04:26:38;;;;;;;11.30;3.37;;;;;;;8.45;100.00;102555.59;2604851;36;20152;-64
2021/10/11 04:29:06;;;;;;;10.75;3.17;;;;;;;8.39;100.00;102563.00;2604008;36;20035;-64
2021/10/11 04:31:35;;;;;;;9.43;3.60;;;;;;;8.38;100.00;102555.88;2602706;36;20040;-64
2021/10/11 04:34:03;;;;;;;21.40;4.80;;;;;;;8.35;100.00;102560.56;2604206;36;20126;-64
2021/10/11 04:36:31;;;;;;;13.13;4.20;;;;;;;8.37;100.00;102564.03;2602999;36;20038;-64
2021/10/11 04:38:59;;;;;;;14.85;4.43;;;;;;;8.34;100.00;102565.03;2604475;36;20129;-64
2021/10/11 04:41:28;;;;;;;12.63;3.63;;;;;;;8.36;100.00;102564.97;2604481;36;20114;-64
2021/10/11 04:43:59;;;;;;;9.05;3.75;;;;;;;8.38;100.00;102572.00;2604483;36;20435;-65
2021/10/11 04:46:27;;;;;;;10.68;3.33;;;;;;;8.29;100.00;102572.47;2602785;31;20042;-65
2021/10/11 04:48:57;;;;;;;13.95;3.20;;;;;;;8.30;100.00;102576.88;2604621;36;20557;-64
2021/10/11 04:51:25;;;;;;;11.93;3.58;;;;;;;8.24;100.00;102569.13;2603363;36;20030;-64
2021/10/11 04:53:53;;;;;;;8.38;3.33;;;;;;;8.17;100.00;102568.59;2602797;36;20034;-65
2021/10/11 04:56:22;;;;;;;10.63;2.85;;;;;;;8.21;100.00;102569.31;2605096;31;20042;-64
2021/10/11 04:58:50;;;;;;;12.68;3.40;;;;;;;8.19;100.00;102571.22;2604697;36;20640;-64
2021/10/11 05:01:21;;;;;;;12.70;3.30;;;;;;;8.21;100.00;102567.47;2604156;36;20611;-64
2021/10/11 05:03:49;;;;;;;11.90;3.60;;;;;;;8.10;100.00;102559.13;2604762;36;20134;-64
2021/10/11 05:06:17;;;;;;;12.40;3.33;;;;;;;8.13;100.00;102550.94;2604380;36;21111;-64
2021/10/11 05:08:45;;;;;;;9.38;3.75;;;;;;;8.18;100.00;102556.91;2605879;36;20153;-64
2021/10/11 05:11:14;;;;;;;13.63;4.07;;;;;;;8.18;100.00;102562.28;2603918;36;20149;-64
2021/10/11 05:13:42;;;;;;;9.38;3.28;;;;;;;8.16;100.00;102566.84;2605334;36;20201;-64
2021/10/11 05:16:12;;;;;;;12.07;3.55;;;;;;;8.22;100.00;102560.31;2604040;36;20050;-64
2021/10/11 05:18:43;;;;;;;10.93;3.40;;;;;;;8.21;100.00;102563.94;2604423;36;20030;-64
2021/10/11 05:21:11;;;;;;;8.98;3.50;;;;;;;8.20;100.00;102568.44;2604085;36;20438;-64
2021/10/11 05:23:39;;;;;;;13.95;3.88;;;;;;;8.22;100.00;102563.84;2605176;36;20214;-64
2021/10/11 05:26:08;;;;;;;16.27;4.22;;;;;;;8.20;100.00;102575.59;2604009;36;20118;-64
2021/10/11 05:28:36;;;;;;;13.55;4.15;;;;;;;8.29;100.00;102572.47;2604344;31;20530;-64
2021/10/11 05:31:04;;;;;;;12.30;3.90;;;;;;;8.37;100.00;102574.75;2603380;36;20114;-64
2021/10/11 05:33:33;;;;;;;17.57;3.63;;;;;;;8.42;100.00;102573.56;2604882;31;20038;-64
2021/10/11 05:36:04;;;;;;;13.60;3.85;;;;;;;8.47;100.00;102578.72;2604692;31;20684;-64
2021/10/11 05:38:34;;;;;;;9.43;3.78;;;;;;;8.51;100.00;102582.09;2604423;36;20146;-64
2021/10/11 05:41:03;;;;;;;14.00;4.30;;;;;;;8.53;100.00;102564.97;2603475;36;20133;-64
2021/10/11 05:43:31;;;;;;;14.10;4.07;;;;;;;8.55;100.00;102570.25;2604791;36;20546;-64
2021/10/11 05:45:59;;;;;;;12.90;4.40;;;;;;;8.58;100.00;102571.00;2603783;31;20073;-64
2021/10/11 05:48:27;;;;;;;11.55;3.88;;;;;;;8.55;100.00;102575.63;2604647;31;20129;-64
2021/10/11 05:50:56;;;;;;;14.55;4.07;;;;;;;8.55;100.00;102578.31;2604892;36;20438;-64
2021/10/11 05:53:26;;;;;;;10.55;3.55;;;;;;;8.67;100.00;102587.53;2604959;36;20116;-64
2021/10/11 05:55:54;;;;;;;16.45;4.90;;;;;;;8.65;100.00;102587.63;2603472;36;20038;-64
2021/10/11 05:58:23;;;;;;;7.97;3.65;;;;;;;8.76;100.00;102593.28;2603384;36;20114;-64
2021/10/11 06:00:52;;;;;;;8.88;3.83;;;;;;;8.82;100.00;102591.22;2604270;36;20158;-64
2021/10/11 06:03:20;;;;;;;10.43;3.50;;;;;;;8.91;100.00;102593.44;2604745;36;20117;-64
2021/10/11 06:05:48;;;;;;;12.40;3.65;;;;;;;8.93;100.00;102591.53;2603121;36;20118;-64
2021/10/11 06:08:17;;;;;;;11.07;3.42;;;;;;;9.02;100.00;102598.22;2601920;36;20122;-63
2021/10/11 06:10:48;;;;;;;13.82;4.07;;;;;;;9.04;100.00;102602.56;2604302;36;20594;-64
2021/10/11 06:13:16;;;;;;;9.52;3.92;;;;;;;8.96;100.00;102591.34;2601298;36;20503;-64
2021/10/11 06:15:45;;;;;;;15.48;4.72;;;;;;;9.03;100.00;102587.38;2600555;36;20060;-64
2021/10/11 06:18:13;;;;;;;15.15;3.60;;;;;;;9.09;100.00;102586.19;2602618;31;20733;-64
2021/10/11 06:20:41;;;;;;;9.13;3.45;;;;;;;9.04;100.00;102578.38;2601362;31;20133;-64
2021/10/11 06:23:12;;;;;;;17.27;3.90;;;;;;;9.04;100.00;102573.00;2603045;36;21834;-64
2021/10/11 06:25:40;;;;;;;14.15;4.00;;;;;;;9.04;100.00;102569.44;2601092;36;20038;-64
2021/10/11 06:28:14;;;;;;;10.35;3.72;;;;;;;9.08;100.00;102571.91;2608447;36;20196;-64
2021/10/11 06:30:45;;;;;;;12.70;3.40;;;;;;;9.16;100.00;102586.69;2615880;36;20041;-64
2021/10/11 06:33:13;;;;;;;16.10;4.43;;;;;;;9.19;100.00;102589.25;2615603;36;20597;-64
2021/10/11 06:35:42;;;;;;;12.07;3.88;;;;;;;9.15;100.00;102587.69;2616799;36;20042;-64
2021/10/11 06:38:10;;;;;;;9.85;3.20;;;;;;;9.22;100.00;102594.44;2616367;36;20080;-64
2021/10/11 06:40:38;;;;;;;9.27;3.83;;;;;;;9.24;100.00;102593.38;2616000;36;20030;-64
2021/10/11 06:43:07;;;;;;;18.65;4.35;;;;;;;9.26;100.00;102598.69;2604147;31;20069;-64
2021/10/11 06:45:38;;;;;;;18.35;4.30;;;;;;;9.29;100.00;102599.38;2600548;36;20039;-64
2021/10/11 06:48:07;;;;;;;10.88;3.67;;;;;;;9.38;100.00;102595.31;2600999;36;20143;-64
2021/10/11 06:50:35;;;;;;;15.85;4.60;;;;;;;9.45;100.00;102602.09;2599305;36;20166;-64
2021/10/11 06:53:03;;;;;;;16.55;3.70;;;;;;;9.46;100.00;102605.63;2600685;36;20049;-64
2021/10/11 06:55:31;;;;;;;12.90;3.75;;;;;;;9.39;100.00;102610.50;2601805;31;20487;-64
2021/10/11 06:57:59;;;;;;;10.23;3.90;;;;;;;9.42;100.00;102612.13;2603247;31;20125;-64
2021/10/11 07:00:28;;;;;;;15.85;4.32;;;;;;;9.44;100.00;102613.78;2605981;36;20524;-65
2021/10/11 07:02:59;;;;;;;11.45;4.90;;;;;;;9.44;100.00;102621.84;2601696;36;20022;-64
2021/10/11 07:05:27;;;;;;;11.63;4.25;;;;;;;9.44;100.00;102621.84;2604174;36;20035;-64
2021/10/11 07:07:57;;;;;;;17.08;5.63;;;;;;;9.47;100.00;102623.50;2601867;36;20042;-64
2021/10/11 07:10:26;;;;;;;13.93;4.88;;;;;;;9.50;100.00;102630.53;2601679;36;20038;-65
2021/10/11 07:12:54;;;;;;;15.93;4.75;;;;;;;9.52;100.00;102626.78;2611628;36;20117;-64
2021/10/11 07:15:23;;;;;;;15.98;5.53;;;;;;;9.58;100.00;102636.34;2610840;36;20046;-65
2021/10/11 07:17:51;;;;;;;16.63;4.85;;;;;;;9.63;100.00;102631.59;2614332;36;20035;-64
2021/10/11 07:20:22;;;;;;;18.80;6.22;;;;;;;9.68;100.00;102634.00;2613806;36;20158;-64
2021/10/11 07:22:50;;;;;;;13.57;5.22;;;;;;;9.70;100.00;102632.97;2614129;36;20072;-64
2021/10/11 07:25:18;;;;;;;15.68;6.03;;;;;;;9.74;100.00;102620.22;2614868;36;20072;-64
2021/10/11 07:27:46;;;;;;;14.18;5.53;;;;;;;9.79;100.00;102635.13;2614412;36;20133;-63
2021/10/11 07:30:15;;;;;;;18.02;5.65;;;;;;;9.81;100.00;102635.91;2614004;36;20630;-64
2021/10/11 07:32:43;;;;;;;15.68;5.25;;;;;;;9.88;100.00;102640.94;2613565;36;20525;-64
2021/10/11 07:35:12;;;;;;;17.17;5.55;;;;;;;10.03;100.00;102634.69;2616039;31;20540;-64
2021/10/11 07:37:42;;;;;;;14.30;5.47;;;;;;;10.05;100.00;102646.22;2615497;36;20113;-64
2021/10/11 07:40:12;;;;;;;20.17;6.53;;;;;;;10.11;100.00;102637.78;2615537;36;20137;-64
2021/10/11 07:42:40;;;;;;;16.85;5.50;;;;;;;10.22;100.00;102628.22;2615320;36;20038;-64
2021/10/11 07:45:09;;;;;;;16.15;5.25;;;;;;;10.34;100.00;102638.31;2615648;36;20041;-64
2021/10/11 07:47:38;;;;;;;15.40;5.25;;;;;;;10.48;100.00;102642.84;2615475;36;20165;-64
2021/10/11 07:50:07;;;;;;;15.68;5.25;;;;;;;10.59;100.00;102643.09;2615056;36;20611;-64
2021/10/11 07:52:35;;;;;;;14.90;4.18;;;;;;;10.69;100.00;102643.41;2616328;36;20022;-64
2021/10/11 07:55:07;;;;;;;15.25;4.63;;;;;;;10.72;100.00;102635.13;2616325;36;20122;-64
2021/10/11 07:57:35;;;;;;;19.30;4.78;;;;;;;10.66;100.00;102640.91;2614627;36;20109;-64
2021/10/11 08:00:04;;;;;;;9.97;4.00;;;;;;;10.83;100.00;102635.31;2615141;36;20454;-64
2021/10/11 08:02:33;;;;;;;15.07;4.97;;;;;;;10.87;100.00;102636.88;2615152;36;20606;-64
2021/10/11 08:05:01;;;;;;;12.48;4.43;;;;;;;10.96;100.00;102634.59;2616090;36;20122;-64
2021/10/11 08:07:29;;;;;;;14.88;5.05;;;;;;;11.04;100.00;102643.03;2616106;36;20114;-64
2021/10/11 08:09:57;;;;;;;15.65;5.15;;;;;;;11.06;100.00;102649.22;2615474;36;20037;-64
2021/10/11 08:12:28;;;;;;;16.10;4.45;;;;;;;11.23;100.00;102648.16;2615938;31;20525;-64
2021/10/11 08:14:56;;;;;;;12.60;4.97;;;;;;;11.46;100.00;102654.78;2615944;36;20527;-64
2021/10/11 08:17:25;;;;;;;13.75;5.30;;;;;;;11.44;100.00;102655.84;2615653;36;20606;-64
2021/10/11 08:19:53;;;;;;;12.75;4.55;;;;;;;11.53;100.00;102652.59;2615605;36;20606;-64
2021/10/11 08:22:22;;;;;;;13.23;4.60;;;;;;;11.74;100.00;102658.41;2614942;36;20157;-64
2021/10/11 08:24:51;;;;;;;13.35;4.80;;;;;;;11.79;100.00;102650.88;2615976;36;20031;-64
2021/10/11 08:27:20;;;;;;;15.90;4.45;;;;;;;11.92;100.00;102657.22;2616374;36;20030;-64
2021/10/11 08:29:53;;;;;;;18.17;4.85;;;;;;;12.10;100.00;102656.97;2615407;36;20487;-64
2021/10/11 08:32:22;;;;;;;13.65;3.60;;;;;;;12.25;100.00;102650.56;2614186;36;20034;-64
2021/10/11 08:34:51;;;;;;;12.48;3.35;;;;;;;12.19;100.00;102653.69;2616013;36;20118;-65
2021/10/11 08:37:19;;;;;;;16.65;3.83;;;;;;;12.36;100.00;102647.13;2615976;36;20121;-64
2021/10/11 08:39:48;;;;;;;13.50;3.43;;;;;;;12.37;100.00;102645.31;2615562;36;20045;-64
2021/10/11 08:42:17;;;;;;;14.02;2.92;;;;;;;12.51;100.00;102647.06;2615517;36;20307;-64
2021/10/11 08:44:45;;;;;;;;;;;;;;;12.55;100.00;102648.59;2615335;31;20030;-64
2021/10/11 08:47:18;;;;;;;15.20;3.23;;;;;;;12.45;100.00;102642.94;2615887;36;20034;-64
2021/10/11 08:49:48;;;;;;;9.35;3.53;;;;;;;12.46;100.00;102650.09;2616128;36;20281;-64
2021/10/11 08:52:21;;;;;;;14.38;3.53;;;;;;;12.52;100.00;102648.81;2616010;36;20655;-64
2021/10/11 08:54:49;;;;;;;8.43;2.70;;;;;;;12.72;100.00;102648.31;2615941;36;20037;-64
2021/10/11 08:57:26;;;;;;;17.58;3.22;;;;;;;12.74;100.00;102642.78;2614916;36;20042;-64
2021/10/11 08:59:56;;;;;;;12.45;3.22;;;;;;;12.95;100.00;102645.81;2615338;36;20819;-64
2021/10/11 09:02:27;;;;;;;12.90;2.90;;;;;;;13.08;100.00;102646.69;2614896;36;20141;-64
2021/10/11 09:04:58;;;;;;;11.30;2.45;;;;;;;13.20;100.00;102653.06;2615352;36;20126;-64
2021/10/11 09:07:28;;;;;;;11.00;2.85;;;;;;;13.43;100.00;102651.44;2615854;36;20121;-64
2021/10/11 09:09:58;;;;;;;11.43;2.63;;;;;;;13.47;100.00;102646.66;2615958;31;20118;-64
2021/10/11 09:12:29;;;;;;;13.60;2.40;;;;;;;13.42;100.00;102644.31;2614692;36;20189;-64
2021/10/11 09:15:07;;;;;;;18.13;3.03;;;;;;;13.60;100.00;102642.13;2616193;36;20031;-64
2021/10/11 09:17:43;;;;;;;9.82;2.67;;;;;;;13.85;100.00;102632.16;2616245;36;20023;-64
2021/10/11 09:20:13;;;;;;;12.68;2.63;;;;;;;13.89;100.00;102630.97;2615443;36;20034;-65
2021/10/11 09:22:44;;;;;;;12.88;2.47;;;;;;;13.98;100.00;102630.28;2615458;36;20118;-64
2021/10/11 09:25:13;;;;;;;11.57;2.28;;;;;;;14.08;100.00;102630.44;2615749;36;20450;-64
2021/10/11 09:27:46;;;;;;;13.95;2.47;;;;;;;14.06;100.00;102637.84;2614927;36;20034;-64
2021/10/11 09:30:17;;;;;;;11.20;2.50;;;;;;;14.11;100.00;102634.78;2614702;36;20169;-64
2021/10/11 09:32:48;;;;;;;10.55;2.05;;;;;;;13.93;100.00;102637.03;2614714;36;20169;-65
2021/10/11 09:35:18;;;;;;;9.63;2.38;;;;;;;14.15;100.00;102636.28;2614989;36;20129;-64
2021/10/11 09:37:52;;;;;;;7.90;2.35;;;;;;;14.34;100.00;102635.75;2615270;36;20125;-64
2021/10/11 09:40:24;;;;;;;14.40;2.60;;;;;;;14.42;100.00;102627.03;2614567;31;20026;-65
2021/10/11 09:42:52;;;;;;;12.38;1.90;;;;;;;14.52;100.00;102633.47;2614801;36;20030;-64
2021/10/11 09:45:25;;;;;;;7.60;1.85;;;;;;;14.31;100.00;102642.25;2615712;36;20073;-64
2021/10/11 09:47:56;;;;;;;11.18;1.92;;;;;;;14.25;100.00;102629.19;2615872;36;20030;-64
2021/10/11 09:50:26;;;;;;;9.43;2.25;;;;;;;14.44;100.00;102641.31;2616192;36;20167;-64
2021/10/11 09:52:55;;;;;;;8.75;1.85;;;;;;;14.69;100.00;102638.47;2615678;36;20113;-64
2021/10/11 09:55:23;;;;;;;10.18;2.63;;;;;;;14.86;100.00;102634.44;2616448;36;20026;-64
2021/10/11 09:57:52;;;;;;;10.77;2.13;;;;;;;14.83;100.00;102621.13;2616019;36;20157;-64
2021/10/11 10:00:20;;;;;;;;;;;;;;;15.23;100.00;102633.34;2616148;36;20085;-64
2021/10/11 10:02:48;;;;;;;8.98;1.85;;;;;;;15.52;100.00;102632.84;2614912;36;19945;-64
2021/10/11 10:05:24;;;;;;;12.07;1.40;;;;;;;15.29;100.00;102627.44;2615077;36;20438;-65
2021/10/11 10:07:54;;;;;;;10.02;1.85;;;;;;;15.51;100.00;102623.84;2616070;36;20559;-64
2021/10/11 10:10:26;;;;;;;7.72;2.30;;;;;;;15.63;100.00;102630.09;2615801;31;20027;-65
2021/10/11 10:12:55;;;;;;;8.35;2.05;;;;;;;15.49;100.00;102624.94;2614847;36;20161;-64
2021/10/11 10:15:32;;;;;;;6.45;2.00;;;;;;;15.58;100.00;102621.50;2615997;36;20038;-64
2021/10/11 10:18:07;;;;;;;7.95;1.73;;;;;;;15.67;100.00;102609.88;2615859;36;20107;-63
2021/10/11 10:20:50;;;;;;;8.38;1.73;;;;;;;15.96;100.00;102612.06;2614052;31;20046;-64
2021/10/11 10:23:25;;;;;;;5.70;2.25;;;;;;;16.05;100.00;102615.84;2614537;36;20035;-64
2021/10/11 10:25:53;;;;;;;7.18;2.58;;;;;;;15.86;100.00;102613.81;2613935;36;20165;-64
2021/10/11 10:28:22;;;;;;;6.97;1.83;;;;;;;15.54;100.00;102618.16;2614524;36;20106;-64
2021/10/11 10:30:58;;;;;;;13.35;4.00;;;;;;;15.49;100.00;102623.09;2615478;36;20027;-64
2021/10/11 10:33:37;;;;;;;12.23;7.57;;;;;;;15.09;100.00;102625.44;2614533;36;20038;-64
2021/10/11 10:36:20;;;;;;;9.50;2.63;;;;;;;14.65;100.00;102612.59;2615014;31;20034;-64
2021/10/11 10:38:59;;;;;;;6.38;1.83;;;;;;;14.59;100.00;102626.59;2615001;36;20062;-64
2021/10/11 10:41:28;;;;;;;12.05;2.20;;;;;;;14.39;100.00;102629.97;2615667;36;20037;-63
2021/10/11 10:43:56;;;;;;;6.30;1.80;;;;;;;14.68;100.00;102619.63;2615419;36;20180;-63
2021/10/11 10:46:25;;;;;;;11.48;1.85;;;;;;;15.03;100.00;102622.25;2614317;36;20122;-63
2021/10/11 10:48:55;;;;;;;7.22;1.42;;;;;;;15.28;100.00;102605.84;2615130;36;20605;-63
2021/10/11 10:51:26;;;;;;;9.35;1.40;;;;;;;15.45;100.00;102607.22;2613731;31;20053;-64
2021/10/11 10:53:56;;;;;;;6.78;1.67;;;;;;;15.68;100.00;102610.72;2616321;36;20035;-64
2021/10/11 10:56:26;;;;;;;5.68;1.50;;;;;;;15.73;100.00;102597.66;2616224;36;20038;-63
2021/10/11 10:59:03;;;;;;;11.23;2.10;;;;;;;15.74;100.00;102600.22;2616519;36;20081;-64
2021/10/11 11:01:32;;;;;;;4.60;1.40;;;;;;;16.04;100.00;102606.81;2616147;36;20439;-64
2021/10/11 11:04:00;;;;;;;11.35;1.63;;;;;;;16.37;100.00;102604.97;2614965;36;20570;-64
2021/10/11 11:06:32;;;;;;;7.50;1.80;;;;;;;16.83;100.00;102613.69;2616557;33;20073;-64
2021/10/11 11:09:02;;;;;;;7.32;1.48;;;;;;;16.76;100.00;102613.38;2615874;31;20156;-64
2021/10/11 11:11:31;;;;;;;6.35;1.40;;;;;;;16.53;100.00;102600.91;2615735;36;20158;-64
2021/10/11 11:14:02;;;;;;;3.88;1.13;;;;;;;16.03;100.00;102599.69;2616447;36;20088;-64
2021/10/11 11:16:31;;;;;;;6.93;1.65;;;;;;;15.58;100.00;102602.50;2615998;36;20077;-64
2021/10/11 11:19:01;;;;;;;4.57;1.40;;;;;;;15.52;100.00;102605.72;2616876;31;20579;-64
2021/10/11 11:21:32;;;;;;;6.03;1.42;;;;;;;15.16;100.00;102619.41;2615590;36;20054;-64
2021/10/11 11:24:00;;;;;;;6.57;2.25;;;;;;;14.65;100.00;102639.69;2616054;31;20054;-64
2021/10/11 11:26:28;;;;;;;8.85;1.75;;;;;;;14.16;100.00;102654.25;2616125;36;20683;-64
2021/10/11 11:28:57;;;;;;;6.67;1.67;;;;;;;13.92;100.00;102651.53;2615579;36;20037;-63